createdAt,value
2017-12-19T00:01:48.895Z,97.96
2017-12-19T00:04:16.032Z,98.09
2017-12-19T00:06:42.248Z,98.19
2017-12-19T00:09:09.485Z,98.28
2017-12-19T00:11:35.618Z,98.33
2017-12-19T00:14:01.976Z,98.42
2017-12-19T00:16:28.102Z,98.48
2017-12-19T00:18:54.428Z,98.51
2017-12-19T00:21:20.699Z,98.56
2017-12-19T00:23:47.070Z,98.66
2017-12-19T00:26:13.216Z,98.66
2017-12-19T00:28:39.550Z,98.70
2017-12-19T00:31:05.786Z,98.68
2017-12-19T00:33:32.010Z,98.69
2017-12-19T00:35:58.257Z,98.69
2017-12-19T00:38:24.388Z,98.63
2017-12-19T00:40:50.706Z,98.62
2017-12-19T00:43:16.866Z,98.59
2017-12-19T00:45:43.371Z,98.57
2017-12-19T00:48:09.709Z,98.50
2017-12-19T00:50:35.991Z,98.47
2017-12-19T00:53:02.155Z,98.41
2017-12-19T00:55:28.389Z,98.42
2017-12-19T00:57:54.638Z,98.41
2017-12-19T01:00:20.978Z,98.43
2017-12-19T01:02:47.202Z,98.41
2017-12-19T01:05:13.325Z,98.41
2017-12-19T01:07:39.473Z,98.42
2017-12-19T01:10:05.651Z,98.47
2017-12-19T01:12:31.845Z,98.56
2017-12-19T01:14:58.003Z,98.59
2017-12-19T01:17:24.171Z,98.55
2017-12-19T01:19:50.999Z,98.56
2017-12-19T01:22:17.286Z,98.58
2017-12-19T01:24:43.579Z,98.64
2017-12-19T01:27:09.791Z,98.60
2017-12-19T01:29:36.120Z,98.59
2017-12-19T01:32:02.229Z,98.51
2017-12-19T01:34:28.476Z,98.54
2017-12-19T01:36:54.598Z,98.52
2017-12-19T01:39:20.684Z,98.51
2017-12-19T01:41:46.779Z,98.51
2017-12-19T01:44:12.979Z,98.62
2017-12-19T01:46:39.097Z,98.67
2017-12-19T01:49:05.318Z,98.64
2017-12-19T01:51:31.446Z,98.63
2017-12-19T01:53:57.534Z,98.65
2017-12-19T01:56:23.645Z,98.62
2017-12-19T01:58:49.846Z,98.58
2017-12-19T02:01:16.201Z,98.51
2017-12-19T02:03:42.255Z,98.50
2017-12-19T02:06:08.298Z,98.47
2017-12-19T02:08:34.545Z,98.41
2017-12-19T02:11:00.605Z,98.40
2017-12-19T02:13:26.721Z,98.37
2017-12-19T02:15:52.765Z,98.39
2017-12-19T02:18:18.963Z,98.34
2017-12-19T02:20:46.191Z,98.36
2017-12-19T02:23:12.514Z,98.29
2017-12-19T02:25:38.751Z,98.30
2017-12-19T02:28:04.885Z,98.30
2017-12-19T02:30:31.093Z,98.29
2017-12-19T02:32:57.303Z,98.33
2017-12-19T02:35:23.579Z,98.27
2017-12-19T02:37:49.953Z,98.17
2017-12-19T02:40:16.021Z,98.19
2017-12-19T02:42:55.310Z,98.28
2017-12-19T02:45:21.473Z,98.30
2017-12-19T02:47:47.592Z,98.33
2017-12-19T02:50:13.781Z,98.41
2017-12-19T02:52:39.997Z,98.42
2017-12-19T02:55:07.246Z,98.55
2017-12-19T02:57:33.314Z,98.60
2017-12-19T03:00:00.226Z,98.54
2017-12-19T03:02:27.349Z,98.59
2017-12-19T03:04:53.522Z,98.71
2017-12-19T03:07:19.768Z,98.66
2017-12-19T03:09:46.122Z,98.55
2017-12-19T03:12:12.257Z,98.47
2017-12-19T03:14:38.404Z,98.45
2017-12-19T03:17:04.711Z,98.49
2017-12-19T03:19:30.944Z,98.49
2017-12-19T03:21:57.175Z,98.51
2017-12-19T03:24:23.385Z,98.58
2017-12-19T03:26:49.528Z,98.65
2017-12-19T03:29:15.857Z,98.67
2017-12-19T03:31:41.988Z,98.50
2017-12-19T03:34:08.169Z,98.52
2017-12-19T03:36:34.355Z,98.48
2017-12-19T03:39:00.491Z,98.49
2017-12-19T03:41:26.599Z,98.48
2017-12-19T03:43:52.745Z,98.48
2017-12-19T03:46:19.037Z,98.47
2017-12-19T03:48:45.283Z,98.46
2017-12-19T03:51:11.622Z,98.45
2017-12-19T03:53:37.840Z,98.50
2017-12-19T03:56:04.266Z,98.47
2017-12-19T03:58:30.423Z,98.49
2017-12-19T04:00:56.830Z,98.51
2017-12-19T04:03:23.606Z,98.53
2017-12-19T04:05:49.689Z,98.42
2017-12-19T04:08:15.937Z,98.38
2017-12-19T04:10:42.051Z,98.43
2017-12-19T04:13:08.841Z,98.43
2017-12-19T04:15:35.107Z,98.33
2017-12-19T04:18:01.516Z,98.41
2017-12-19T04:20:27.683Z,98.45
2017-12-19T04:22:53.954Z,98.43
2017-12-19T04:25:20.098Z,98.46
2017-12-19T04:27:46.220Z,98.43
2017-12-19T04:30:12.492Z,98.43
2017-12-19T04:32:38.592Z,98.49
2017-12-19T04:35:04.713Z,98.59
2017-12-19T04:37:30.958Z,98.62
2017-12-19T04:39:57.104Z,98.57
2017-12-19T04:42:23.188Z,98.59
2017-12-19T04:44:49.391Z,98.51
2017-12-19T04:47:15.568Z,98.53
2017-12-19T04:49:41.723Z,98.58
2017-12-19T04:52:08.113Z,98.52
2017-12-19T04:54:34.308Z,98.59
2017-12-19T04:57:00.469Z,98.62
2017-12-19T04:59:26.534Z,98.71
2017-12-19T05:01:53.219Z,98.74
2017-12-19T05:04:19.557Z,98.73
2017-12-19T05:06:45.774Z,98.66
2017-12-19T05:09:12.346Z,98.62
2017-12-19T05:11:39.222Z,98.59
2017-12-19T05:14:06.083Z,98.63
2017-12-19T05:16:32.606Z,98.67
2017-12-19T05:19:01.792Z,98.60
2017-12-19T05:21:28.435Z,98.60
2017-12-19T05:23:55.256Z,98.59
2017-12-19T05:26:21.761Z,98.69
2017-12-19T05:28:48.395Z,98.68
2017-12-19T05:31:15.067Z,98.66
2017-12-19T05:33:41.603Z,98.57
2017-12-19T05:36:08.417Z,98.59
2017-12-19T05:38:35.076Z,98.54
2017-12-19T05:57:57.670Z,98.50
2017-12-19T06:03:00.168Z,98.60
2017-12-19T06:05:31.283Z,98.72
2017-12-19T06:10:34.896Z,98.82
2017-12-19T06:13:01.444Z,98.81
2017-12-19T06:15:27.984Z,98.78
2017-12-19T06:17:56.849Z,98.80
2017-12-19T06:20:23.798Z,98.78
2017-12-19T06:22:50.553Z,98.71
2017-12-19T06:25:18.124Z,98.80
2017-12-19T06:30:17.181Z,98.70
2017-12-19T06:32:44.112Z,98.67
2017-12-19T06:35:11.048Z,98.65
2017-12-19T06:37:37.683Z,98.62
2017-12-19T06:40:04.026Z,98.56
2017-12-19T06:42:30.556Z,98.46
2017-12-19T06:44:57.096Z,98.46
2017-12-19T06:47:23.945Z,98.46
2017-12-19T06:49:50.534Z,98.53
2017-12-19T06:52:17.278Z,98.37
2017-12-19T06:54:43.747Z,98.35
2017-12-19T06:57:10.480Z,98.38
2017-12-19T06:59:37.163Z,98.51
2017-12-19T07:02:03.649Z,98.44
2017-12-19T07:04:30.007Z,98.44
2017-12-19T07:06:56.396Z,98.37
2017-12-19T07:09:22.962Z,98.48
2017-12-19T07:11:49.603Z,98.59
2017-12-19T07:14:16.392Z,98.55
2017-12-19T07:16:43.024Z,98.44
2017-12-19T07:19:09.510Z,98.43
2017-12-19T07:21:36.633Z,98.41
2017-12-19T07:24:03.126Z,98.45
2017-12-19T07:26:29.529Z,98.48
2017-12-19T07:28:56.077Z,98.51
2017-12-19T07:31:22.639Z,98.47
2017-12-19T07:33:48.960Z,98.45
2017-12-19T07:36:15.404Z,98.43
2017-12-19T07:38:41.571Z,98.32
2017-12-19T07:41:07.703Z,98.35
2017-12-19T07:43:33.950Z,98.35
2017-12-19T07:46:00.072Z,98.24
2017-12-19T07:48:26.203Z,98.24
2017-12-19T07:50:52.469Z,98.25
2017-12-19T07:53:18.691Z,98.24
2017-12-19T07:55:44.934Z,98.24
2017-12-19T07:58:11.069Z,98.13
2017-12-19T08:00:37.184Z,98.06
2017-12-19T08:03:03.269Z,98.02
2017-12-19T08:05:29.373Z,97.89
2017-12-19T08:07:55.575Z,97.84
2017-12-19T08:10:21.699Z,97.78
2017-12-19T08:12:47.860Z,97.70
2017-12-19T08:15:14.177Z,97.55
2017-12-19T08:17:40.415Z,97.49
2017-12-19T08:20:06.763Z,97.27
2017-12-19T08:22:33.013Z,97.16
2017-12-19T08:24:59.253Z,96.98
2017-12-19T08:27:25.525Z,96.81
2017-12-19T08:29:51.780Z,96.76
2017-12-19T08:32:18.219Z,96.79
2017-12-19T08:34:44.783Z,96.82
2017-12-19T08:37:11.003Z,96.71
2017-12-19T08:39:37.077Z,96.67
2017-12-19T08:42:03.449Z,96.57
2017-12-19T08:44:29.465Z,96.53
2017-12-19T08:46:55.583Z,96.40
2017-12-19T08:49:22.908Z,96.29
2017-12-19T08:51:48.973Z,95.98
2017-12-19T08:54:15.222Z,95.67
2017-12-19T08:56:41.346Z,95.37
2017-12-19T08:59:07.608Z,95.28
2017-12-19T09:01:33.801Z,95.16
2017-12-19T09:03:59.935Z,94.93
2017-12-19T09:06:26.068Z,94.56
2017-12-19T09:08:52.109Z,94.58
2017-12-19T09:11:18.315Z,93.80
2017-12-19T09:13:44.431Z,93.32
2017-12-19T09:16:10.590Z,92.62
2017-12-19T09:18:36.718Z,92.22
2017-12-19T09:21:02.836Z,92.46
2017-12-19T09:23:28.845Z,92.88
2017-12-19T09:25:54.862Z,93.08
2017-12-19T09:28:21.442Z,93.08
2017-12-19T09:30:47.554Z,93.70
2017-12-19T09:33:13.645Z,93.95
2017-12-19T09:35:39.652Z,93.91
2017-12-19T09:38:07.123Z,93.86
2017-12-19T09:40:33.181Z,93.57
2017-12-19T09:42:59.244Z,93.15
2017-12-19T09:45:25.446Z,93.17
2017-12-19T09:47:51.485Z,93.19
2017-12-19T09:50:17.590Z,93.23
2017-12-19T09:52:43.683Z,92.66
2017-12-19T09:55:09.877Z,93.30
2017-12-19T09:57:35.987Z,93.11
2017-12-19T10:00:02.183Z,92.73
2017-12-19T10:02:28.334Z,92.60
2017-12-19T10:04:54.438Z,92.42
2017-12-19T10:07:20.518Z,92.25
2017-12-19T10:09:46.672Z,91.92
2017-12-19T10:12:12.796Z,91.66
2017-12-19T10:14:38.993Z,91.54
2017-12-19T10:17:05.139Z,91.59
2017-12-19T10:19:31.273Z,90.96
2017-12-19T10:21:57.337Z,91.03
2017-12-19T10:24:23.426Z,90.67
2017-12-19T10:26:49.486Z,90.50
2017-12-19T10:29:15.906Z,90.84
2017-12-19T10:31:42.175Z,90.57
2017-12-19T10:34:08.596Z,90.26
2017-12-19T10:36:35.190Z,89.76
2017-12-19T10:39:02.208Z,89.76
2017-12-19T10:41:28.800Z,89.80
2017-12-19T10:43:55.361Z,89.56
2017-12-19T10:46:21.948Z,89.44
2017-12-19T10:48:48.221Z,89.08
2017-12-19T10:51:15.421Z,88.78
2017-12-19T10:53:41.770Z,88.32
2017-12-19T10:56:08.291Z,87.95
2017-12-19T10:58:34.633Z,88.37
2017-12-19T11:01:01.813Z,88.31
2017-12-19T11:03:28.212Z,87.48
2017-12-19T11:05:54.835Z,87.48
2017-12-19T11:08:30.307Z,87.02
2017-12-19T11:10:56.507Z,86.29
2017-12-19T11:13:41.484Z,85.91
2017-12-19T11:16:08.184Z,84.88
2017-12-19T11:18:34.471Z,84.87
2017-12-19T11:21:00.814Z,84.00
2017-12-19T11:23:27.491Z,83.85
2017-12-19T11:25:56.973Z,83.82
2017-12-19T11:28:23.283Z,82.74
2017-12-19T11:30:50.143Z,82.51
2017-12-19T11:33:16.781Z,82.63
2017-12-19T11:35:43.695Z,82.28
2017-12-19T11:38:10.008Z,83.74
2017-12-19T11:40:37.057Z,83.79
2017-12-19T11:43:04.258Z,84.25
2017-12-19T11:45:30.382Z,84.24
2017-12-19T11:47:56.566Z,84.55
2017-12-19T11:50:25.303Z,84.05
2017-12-19T11:52:53.523Z,84.22
2017-12-19T11:55:19.725Z,84.41
2017-12-19T11:57:46.149Z,84.27
2017-12-19T12:00:12.781Z,84.69
2017-12-19T12:02:43.128Z,84.49
2017-12-19T12:05:10.632Z,84.64
2017-12-19T12:07:37.013Z,85.25
2017-12-19T12:10:03.602Z,85.47
2017-12-19T12:12:35.994Z,85.42
2017-12-19T12:15:02.813Z,85.72
2017-12-19T12:17:29.396Z,85.24
2017-12-19T12:19:56.124Z,85.46
2017-12-19T12:22:22.916Z,85.94
2017-12-19T12:24:54.119Z,86.45
2017-12-19T12:27:20.926Z,86.83
2017-12-19T12:29:47.695Z,86.86
2017-12-19T12:32:14.222Z,86.80
2017-12-19T12:34:41.889Z,86.80
2017-12-19T12:37:08.824Z,87.14
2017-12-19T12:39:34.891Z,87.06
2017-12-19T12:42:01.039Z,86.46
2017-12-19T12:44:27.152Z,86.57
2017-12-19T12:46:53.359Z,86.45
2017-12-19T12:49:19.499Z,86.38
2017-12-19T12:51:45.589Z,86.29
2017-12-19T12:54:11.734Z,85.97
2017-12-19T12:56:38.930Z,86.30
2017-12-19T12:59:05.479Z,86.84
2017-12-19T13:01:31.933Z,85.78
2017-12-19T13:03:58.154Z,85.50
2017-12-19T13:06:24.653Z,86.51
2017-12-19T13:08:51.154Z,86.78
2017-12-19T13:11:17.352Z,87.05
2017-12-19T13:13:43.738Z,86.79
2017-12-19T13:16:10.398Z,86.50
2017-12-19T13:18:36.492Z,86.87
2017-12-19T13:21:02.710Z,87.03
2017-12-19T13:23:29.268Z,86.77
2017-12-19T13:25:55.615Z,87.06
2017-12-19T13:28:21.860Z,87.20
2017-12-19T13:30:48.100Z,87.43
2017-12-19T13:33:14.676Z,87.80
2017-12-19T13:35:41.042Z,87.92
2017-12-19T13:38:07.512Z,87.47
2017-12-19T13:40:33.936Z,87.51
2017-12-19T13:43:00.263Z,88.06
2017-12-19T13:45:26.502Z,88.06
2017-12-19T13:47:52.726Z,87.93
2017-12-19T13:50:19.314Z,88.24
2017-12-19T13:52:45.550Z,88.28
2017-12-19T13:55:11.757Z,89.11
2017-12-19T13:57:38.112Z,89.47
2017-12-19T14:00:04.228Z,89.25
2017-12-19T14:02:35.659Z,89.59
2017-12-19T14:05:02.440Z,89.80
2017-12-19T14:07:28.474Z,90.12
2017-12-19T14:09:55.029Z,90.37
2017-12-19T14:12:21.151Z,90.74
2017-12-19T14:14:47.194Z,90.78
2017-12-19T14:17:20.274Z,90.98
2017-12-19T14:19:46.439Z,91.28
2017-12-19T14:22:12.566Z,91.44
2017-12-19T14:24:38.685Z,91.40
2017-12-19T14:27:04.893Z,91.28
2017-12-19T14:29:31.396Z,91.50
2017-12-19T14:31:58.031Z,91.48
2017-12-19T14:34:24.533Z,91.33
2017-12-19T14:36:50.895Z,91.46
2017-12-19T14:39:17.448Z,91.76
2017-12-19T14:41:43.965Z,91.51
2017-12-19T14:44:10.390Z,91.81
2017-12-19T14:46:37.082Z,92.16
2017-12-19T14:49:03.572Z,92.24
2017-12-19T14:51:30.170Z,92.20
2017-12-19T14:53:56.718Z,92.40
2017-12-19T14:56:24.377Z,92.57
2017-12-19T14:58:51.185Z,92.38
2017-12-19T15:01:17.251Z,92.56
2017-12-19T15:03:43.293Z,92.91
2017-12-19T15:06:09.862Z,93.06
2017-12-19T15:08:36.566Z,93.35
2017-12-19T15:11:02.926Z,93.36
2017-12-19T15:13:29.388Z,93.43
2017-12-19T15:15:55.896Z,93.58
2017-12-19T15:18:22.268Z,93.62
2017-12-19T15:20:48.869Z,93.74
2017-12-19T15:25:52.486Z,93.66
2017-12-19T15:30:58.769Z,93.86
2017-12-19T15:36:01.665Z,94.06
2017-12-19T15:38:32.069Z,94.19
2017-12-19T15:43:34.325Z,94.66
2017-12-19T15:46:06.612Z,94.90
2017-12-19T15:51:12.386Z,95.10
2017-12-19T15:56:16.913Z,95.33
2017-12-19T16:09:28.322Z,95.49
2017-12-19T16:12:18.887Z,95.22
2017-12-19T16:14:46.642Z,95.41
2017-12-19T16:17:12.926Z,95.47
2017-12-19T16:19:39.276Z,95.59
2017-12-19T16:22:05.675Z,95.84
2017-12-19T16:24:31.908Z,95.78
2017-12-19T16:26:58.510Z,95.88
2017-12-19T16:29:24.874Z,95.93
2017-12-19T16:31:51.212Z,95.98
2017-12-19T16:34:21.214Z,95.88
2017-12-19T16:36:48.496Z,95.98
2017-12-19T16:39:20.868Z,95.89
2017-12-19T16:41:48.406Z,95.67
2017-12-19T16:44:18.532Z,96.08
2017-12-19T16:46:46.382Z,96.29
2017-12-19T16:49:15.198Z,96.45
2017-12-19T16:51:42.639Z,96.53
2017-12-19T16:54:08.959Z,96.56
2017-12-19T16:56:35.184Z,96.56
2017-12-19T16:59:01.985Z,96.51
2017-12-19T17:01:28.151Z,96.47
2017-12-19T17:03:59.006Z,96.52
2017-12-19T17:06:26.976Z,96.43
2017-12-19T17:08:53.683Z,96.40
2017-12-19T17:11:20.454Z,96.35
2017-12-19T17:13:47.348Z,96.34
2017-12-19T17:16:14.236Z,96.23
2017-12-19T17:18:41.486Z,96.20
2017-12-19T17:21:10.991Z,96.29
2017-12-19T17:23:37.819Z,96.45
2017-12-19T17:26:06.129Z,96.51
2017-12-19T17:28:36.511Z,96.26
2017-12-19T17:31:08.533Z,96.54
2017-12-19T17:36:45.301Z,96.78
2017-12-19T17:39:19.211Z,96.81
2017-12-19T17:41:46.364Z,96.65
2017-12-19T17:44:24.265Z,96.78
2017-12-19T17:46:51.501Z,96.83
2017-12-19T17:51:51.361Z,96.91
2017-12-19T17:54:18.774Z,96.88
2017-12-19T17:56:44.991Z,96.73
2017-12-19T17:59:11.385Z,96.78
2017-12-19T18:01:38.148Z,96.83
2017-12-19T18:04:04.602Z,96.95
2017-12-19T18:06:30.954Z,96.98
2017-12-19T18:08:57.266Z,96.85
2017-12-19T18:13:54.720Z,96.45
2017-12-19T18:16:21.080Z,96.39
2017-12-19T18:18:47.395Z,96.44
2017-12-19T18:21:13.968Z,96.52
2017-12-19T18:23:40.304Z,96.80
2017-12-19T18:26:06.597Z,96.90
2017-12-19T18:28:33.134Z,96.84
2017-12-19T18:31:01.559Z,97.03
2017-12-19T18:33:27.710Z,97.02
2017-12-19T18:35:54.371Z,97.12
2017-12-19T18:38:20.845Z,97.25
2017-12-19T18:40:47.343Z,97.11
2017-12-19T18:43:14.695Z,97.15
2017-12-19T18:45:40.826Z,97.15
2017-12-19T18:48:07.164Z,97.10
2017-12-19T18:53:05.021Z,97.19
2017-12-19T18:55:31.282Z,97.29
2017-12-19T18:57:57.595Z,97.29
2017-12-19T19:00:23.794Z,97.27
2017-12-19T19:02:50.092Z,97.31
2017-12-19T19:05:16.628Z,97.33
2017-12-19T19:07:43.064Z,97.33
2017-12-19T19:10:09.880Z,97.31
2017-12-19T19:12:37.329Z,97.29
2017-12-19T19:15:03.820Z,97.34
2017-12-19T19:17:32.837Z,97.41
2017-12-19T19:19:59.308Z,97.47
2017-12-19T19:22:29.858Z,97.57
2017-12-19T19:24:56.394Z,97.55
2017-12-19T19:27:23.120Z,97.53
2017-12-19T19:29:54.255Z,97.58
2017-12-19T19:32:23.372Z,97.56
2017-12-19T19:34:52.124Z,97.58
2017-12-19T19:37:20.097Z,97.65
2017-12-19T19:39:48.319Z,97.67
2017-12-19T19:45:09.698Z,97.73
2017-12-19T19:47:38.866Z,97.84
2017-12-19T19:50:17.848Z,97.84
2017-12-19T19:52:47.980Z,97.80
2017-12-19T19:55:17.072Z,97.85
2017-12-19T19:57:47.203Z,97.86
2017-12-19T20:00:21.967Z,97.80
2017-12-19T20:02:51.951Z,97.76
2017-12-19T20:05:19.981Z,97.72
2017-12-19T20:07:50.172Z,97.75
2017-12-19T20:10:19.297Z,97.81
2017-12-19T20:12:47.202Z,97.67
2017-12-19T20:15:19.048Z,97.72
2017-12-19T20:17:47.953Z,97.77
2017-12-19T20:20:16.655Z,97.84
2017-12-19T20:22:43.866Z,97.97
2017-12-19T20:25:11.243Z,98.11
2017-12-19T20:27:39.057Z,98.08
2017-12-19T20:30:06.468Z,97.96
2017-12-19T20:32:35.912Z,97.96
2017-12-19T20:35:04.209Z,97.97
2017-12-19T20:37:33.471Z,97.97
2017-12-19T20:40:00.785Z,97.97
2017-12-19T20:42:29.008Z,98.06
2017-12-19T20:44:56.924Z,97.90
2017-12-19T20:47:25.373Z,97.89
2017-12-19T20:49:52.646Z,97.96
2017-12-19T20:52:20.123Z,97.96
2017-12-19T20:54:47.448Z,98.10
2017-12-19T20:57:14.840Z,98.09
2017-12-19T20:59:42.502Z,98.08
2017-12-19T21:02:09.379Z,98.06
2017-12-19T21:04:36.892Z,98.14
2017-12-19T21:07:03.986Z,98.09
2017-12-19T21:09:33.353Z,97.89
2017-12-19T21:12:02.645Z,97.89
2017-12-19T21:14:32.828Z,97.98
2017-12-19T21:17:00.400Z,98.06
2017-12-19T21:19:27.646Z,98.04
2017-12-19T21:24:28.323Z,98.18
2017-12-19T21:26:56.654Z,98.24
2017-12-19T21:29:22.978Z,98.28
2017-12-19T21:31:49.940Z,98.27
2017-12-19T21:34:17.521Z,98.03
2017-12-19T21:36:44.026Z,98.06
2017-12-19T21:39:12.389Z,97.88
2017-12-19T21:41:39.046Z,98.05
2017-12-19T21:44:05.428Z,98.10
2017-12-19T21:46:31.732Z,98.17
2017-12-19T21:48:58.530Z,98.23
2017-12-19T21:51:24.875Z,98.30
2017-12-19T21:53:51.274Z,98.35
2017-12-19T21:56:18.020Z,98.44
2017-12-19T21:58:46.071Z,98.40
2017-12-19T22:01:12.533Z,98.34
2017-12-19T22:03:39.158Z,98.25
2017-12-19T22:06:05.771Z,98.31
2017-12-19T22:08:32.106Z,98.33
2017-12-19T22:10:58.466Z,98.25
2017-12-19T22:13:25.103Z,98.31
2017-12-19T22:15:51.300Z,98.39
2017-12-19T22:18:17.753Z,98.43
2017-12-19T22:20:44.764Z,98.44
2017-12-19T22:23:11.320Z,98.53
2017-12-19T22:25:38.040Z,98.48
2017-12-19T22:28:05.170Z,98.56
2017-12-19T22:30:31.616Z,98.58
2017-12-19T22:32:58.073Z,98.71
2017-12-19T22:35:24.408Z,98.83
2017-12-19T22:37:50.522Z,98.86
2017-12-19T22:40:16.738Z,98.99
2017-12-19T22:42:43.115Z,99.08
2017-12-19T22:45:09.368Z,99.09
2017-12-19T22:47:35.834Z,99.01
2017-12-19T22:50:02.313Z,99.05
2017-12-19T22:52:28.720Z,99.11
2017-12-19T22:54:54.873Z,99.06
2017-12-19T22:57:22.283Z,99.07
2017-12-19T22:59:48.632Z,99.07
2017-12-19T23:02:14.972Z,99.13
2017-12-19T23:04:41.409Z,99.14
2017-12-19T23:07:08.028Z,99.25
2017-12-19T23:09:34.359Z,99.31
2017-12-19T23:12:00.432Z,99.39
2017-12-19T23:14:26.981Z,99.29
2017-12-19T23:16:53.212Z,99.19
2017-12-19T23:19:19.508Z,99.25
2017-12-19T23:21:45.771Z,99.25
2017-12-19T23:24:11.976Z,99.16
2017-12-19T23:26:38.390Z,99.00
2017-12-19T23:29:04.824Z,98.99
2017-12-19T23:31:31.118Z,98.98
2017-12-19T23:33:57.493Z,98.95
2017-12-19T23:36:23.624Z,98.98
2017-12-19T23:38:49.939Z,98.97
2017-12-19T23:41:16.170Z,98.96
2017-12-19T23:43:42.402Z,99.00
2017-12-19T23:46:08.525Z,99.01
2017-12-19T23:48:34.678Z,99.00
2017-12-19T23:51:00.900Z,98.99
2017-12-19T23:53:27.400Z,99.00
2017-12-19T23:55:53.648Z,98.85
2017-12-19T23:58:19.885Z,98.87
